createdAt,value
2018-09-04T00:00:45.347Z,16.10
2018-09-04T00:03:12.679Z,16.00
2018-09-04T00:05:40.085Z,15.90
2018-09-04T00:08:07.585Z,15.60
2018-09-04T00:10:35.063Z,15.50
2018-09-04T00:13:02.532Z,15.60
2018-09-04T00:15:30.017Z,15.80
2018-09-04T00:17:57.503Z,15.90
2018-09-04T00:20:24.964Z,16.00
2018-09-04T00:22:52.317Z,16.00
2018-09-04T00:25:19.725Z,16.10
2018-09-04T00:27:47.131Z,16.00
2018-09-04T00:30:14.634Z,16.00
2018-09-04T00:32:42.102Z,16.00
2018-09-04T00:35:09.544Z,16.00
2018-09-04T00:37:36.992Z,16.00
2018-09-04T00:40:05.523Z,15.90
2018-09-04T00:42:33.010Z,15.90
2018-09-04T00:45:00.521Z,15.90
2018-09-04T00:47:27.896Z,15.90
2018-09-04T00:49:55.397Z,16.00
2018-09-04T00:52:22.900Z,15.90
2018-09-04T00:54:50.464Z,15.90
2018-09-04T00:57:17.923Z,15.90
2018-09-04T00:59:45.288Z,15.80
2018-09-04T01:02:12.723Z,15.80
2018-09-04T01:04:40.187Z,15.80
2018-09-04T01:07:07.562Z,15.80
2018-09-04T01:09:35.197Z,15.70
2018-09-04T01:12:02.678Z,15.70
2018-09-04T01:14:30.147Z,15.60
2018-09-04T01:16:57.632Z,15.70
2018-09-04T01:19:25.012Z,15.70
2018-09-04T01:21:52.390Z,15.60
2018-09-04T01:24:19.923Z,15.70
2018-09-04T01:26:47.385Z,15.60
2018-09-04T01:29:14.830Z,15.70
2018-09-04T01:31:42.263Z,15.70
2018-09-04T01:34:09.697Z,15.40
2018-09-04T01:36:37.142Z,15.40
2018-09-04T01:39:05.930Z,15.60
2018-09-04T01:41:33.283Z,15.60
2018-09-04T01:44:00.803Z,15.60
2018-09-04T01:46:28.212Z,15.60
2018-09-04T01:48:55.623Z,15.50
2018-09-04T01:51:23.089Z,15.50
2018-09-04T01:53:50.582Z,15.40
2018-09-04T01:56:18.101Z,15.40
2018-09-04T01:58:45.604Z,15.30
2018-09-04T02:01:13.064Z,15.20
2018-09-04T02:03:40.442Z,15.20
2018-09-04T02:06:07.821Z,15.20
2018-09-04T02:08:35.214Z,15.10
2018-09-04T02:11:02.653Z,15.10
2018-09-04T02:13:30.050Z,15.20
2018-09-04T02:15:57.488Z,15.20
2018-09-04T02:18:25.034Z,15.20
2018-09-04T02:20:52.504Z,15.20
2018-09-04T02:23:19.863Z,15.20
2018-09-04T02:25:47.253Z,15.20
2018-09-04T02:28:14.686Z,15.20
2018-09-04T02:30:42.170Z,15.30
2018-09-04T02:33:09.693Z,15.20
2018-09-04T02:35:36.971Z,15.20
2018-09-04T02:38:05.149Z,15.10
2018-09-04T02:40:32.516Z,15.00
2018-09-04T02:43:00.012Z,15.00
2018-09-04T02:45:27.393Z,15.00
2018-09-04T02:47:54.868Z,14.90
2018-09-04T02:50:22.272Z,14.90
2018-09-04T02:52:49.667Z,14.90
2018-09-04T02:55:17.022Z,14.70
2018-09-04T02:57:44.534Z,14.60
2018-09-04T03:00:11.987Z,14.50
2018-09-04T03:02:39.380Z,14.30
2018-09-04T03:05:06.780Z,14.30
2018-09-04T03:07:34.286Z,14.40
2018-09-04T03:10:01.672Z,14.50
2018-09-04T03:12:29.146Z,14.70
2018-09-04T03:14:56.555Z,14.70
2018-09-04T03:17:23.967Z,14.70
2018-09-04T03:19:51.384Z,14.80
2018-09-04T03:22:18.825Z,14.70
2018-09-04T03:24:46.273Z,14.60
2018-09-04T03:27:13.749Z,14.50
2018-09-04T03:29:41.240Z,14.30
2018-09-04T03:32:08.629Z,14.20
2018-09-04T03:34:36.184Z,14.30
2018-09-04T03:37:03.791Z,14.50
2018-09-04T03:39:31.227Z,14.60
2018-09-04T03:41:58.716Z,14.60
2018-09-04T03:44:26.270Z,14.70
2018-09-04T03:46:53.659Z,14.70
2018-09-04T03:49:21.127Z,14.60
2018-09-04T03:51:48.568Z,14.60
2018-09-04T03:54:16.015Z,14.60
2018-09-04T03:56:43.450Z,14.60
2018-09-04T03:59:10.868Z,14.50
2018-09-04T04:01:38.361Z,14.50
2018-09-04T04:04:05.755Z,14.50
2018-09-04T04:06:33.162Z,14.40
2018-09-04T04:09:00.619Z,14.40
2018-09-04T04:11:28.044Z,14.30
2018-09-04T04:13:55.531Z,14.30
2018-09-04T04:16:22.971Z,14.30
2018-09-04T04:18:50.488Z,14.20
2018-09-04T04:21:17.918Z,14.20
2018-09-04T04:23:45.293Z,14.20
2018-09-04T04:26:12.788Z,14.20
2018-09-04T04:28:40.368Z,14.20
2018-09-04T04:31:07.870Z,14.20
2018-09-04T04:33:35.313Z,14.20
2018-09-04T04:36:02.860Z,14.10
2018-09-04T04:38:30.252Z,14.10
2018-09-04T04:40:57.666Z,14.20
2018-09-04T04:43:25.144Z,14.20
2018-09-04T04:45:52.620Z,14.10
2018-09-04T04:48:20.069Z,14.00
2018-09-04T04:50:47.448Z,14.00
2018-09-04T04:53:14.893Z,14.10
2018-09-04T04:55:42.294Z,14.00
2018-09-04T04:58:09.675Z,13.90
2018-09-04T05:00:37.075Z,14.00
2018-09-04T05:03:04.660Z,14.10
2018-09-04T05:05:32.094Z,14.20
2018-09-04T05:07:59.589Z,14.20
2018-09-04T05:10:27.042Z,14.20
2018-09-04T05:12:54.480Z,14.10
2018-09-04T05:15:21.910Z,14.10
2018-09-04T05:17:49.314Z,14.20
2018-09-04T05:20:23.696Z,14.20
2018-09-04T05:22:51.169Z,14.20
2018-09-04T05:25:18.608Z,14.30
2018-09-04T05:27:46.059Z,14.30
2018-09-04T05:30:13.541Z,14.10
2018-09-04T05:32:44.652Z,14.10
2018-09-04T05:35:13.333Z,14.20
2018-09-04T05:37:42.582Z,14.30
2018-09-04T05:40:10.167Z,14.30
2018-09-04T05:42:42.271Z,14.20
2018-09-04T05:45:09.747Z,14.10
2018-09-04T05:47:38.728Z,14.00
2018-09-04T05:50:07.315Z,14.00
2018-09-04T05:52:35.217Z,14.00
2018-09-04T05:55:02.705Z,14.00
2018-09-04T05:57:30.128Z,13.90
2018-09-04T05:59:57.632Z,13.80
2018-09-04T06:02:25.200Z,13.70
2018-09-04T06:04:52.588Z,13.60
2018-09-04T06:07:19.980Z,13.60
2018-09-04T06:09:47.427Z,13.60
2018-09-04T06:12:14.907Z,13.50
2018-09-04T06:14:42.384Z,13.50
2018-09-04T06:17:09.920Z,13.50
2018-09-04T06:19:37.405Z,13.50
2018-09-04T06:22:04.984Z,13.50
2018-09-04T06:24:32.445Z,13.60
2018-09-04T06:26:59.971Z,13.60
2018-09-04T06:29:27.428Z,13.60
2018-09-04T06:31:54.845Z,13.60
2018-09-04T06:34:22.252Z,13.70
2018-09-04T06:36:49.824Z,13.70
2018-09-04T06:39:17.184Z,13.80
2018-09-04T06:41:44.707Z,13.80
2018-09-04T06:44:12.131Z,13.90
2018-09-04T06:46:39.602Z,13.90
2018-09-04T06:49:06.910Z,14.00
2018-09-04T06:51:34.258Z,14.00
2018-09-04T06:54:01.672Z,14.00
2018-09-04T06:56:29.112Z,14.10
2018-09-04T06:58:56.565Z,14.20
2018-09-04T07:01:24.117Z,14.20
2018-09-04T07:03:51.603Z,14.30
2018-09-04T07:06:19.028Z,14.30
2018-09-04T07:08:46.648Z,14.40
2018-09-04T07:11:14.056Z,14.60
2018-09-04T07:13:41.500Z,14.70
2018-09-04T07:16:08.942Z,14.80
2018-09-04T07:18:36.338Z,14.80
2018-09-04T07:21:03.937Z,14.90
2018-09-04T07:23:31.451Z,15.00
2018-09-04T07:25:58.990Z,15.00
2018-09-04T07:28:26.359Z,15.10
2018-09-04T07:30:53.828Z,15.20
2018-09-04T07:33:21.291Z,15.20
2018-09-04T07:35:48.821Z,15.30
2018-09-04T07:38:16.293Z,15.40
2018-09-04T07:40:43.705Z,15.70
2018-09-04T07:43:11.157Z,15.80
2018-09-04T07:45:38.608Z,16.00
2018-09-04T07:48:06.085Z,16.00
2018-09-04T07:50:33.520Z,16.00
2018-09-04T07:53:00.932Z,16.00
2018-09-04T07:55:28.439Z,16.10
2018-09-04T07:57:55.942Z,16.10
2018-09-04T08:00:23.519Z,16.20
2018-09-04T08:02:51.100Z,16.30
2018-09-04T08:05:18.592Z,16.40
2018-09-04T08:07:46.086Z,16.40
2018-09-04T08:10:13.526Z,16.50
2018-09-04T08:12:41.062Z,16.70
2018-09-04T08:15:08.553Z,16.90
2018-09-04T08:17:36.055Z,17.00
2018-09-04T08:20:05.921Z,17.00
2018-09-04T08:22:34.572Z,17.30
2018-09-04T08:25:02.030Z,17.40
2018-09-04T08:27:29.461Z,17.60
2018-09-04T08:29:56.937Z,17.50
2018-09-04T08:32:24.360Z,17.50
2018-09-04T08:34:51.798Z,17.60
2018-09-04T08:37:19.239Z,17.80
2018-09-04T08:39:48.456Z,17.80
2018-09-04T08:42:23.520Z,17.70
2018-09-04T08:44:51.082Z,17.70
2018-09-04T08:47:19.119Z,17.90
2018-09-04T08:49:46.674Z,18.10
2018-09-04T08:52:14.051Z,18.30
2018-09-04T08:54:41.544Z,18.40
2018-09-04T08:57:09.091Z,18.30
2018-09-04T08:59:37.633Z,18.40
2018-09-04T09:02:05.136Z,18.30
2018-09-04T09:04:32.550Z,18.40
2018-09-04T09:07:00.134Z,18.30
2018-09-04T09:09:27.535Z,18.30
2018-09-04T09:11:54.938Z,18.40
2018-09-04T09:14:22.295Z,18.50
2018-09-04T09:16:49.846Z,18.60
2018-09-04T09:19:17.253Z,18.70
2018-09-04T09:21:44.741Z,18.80
2018-09-04T09:24:12.223Z,18.90
2018-09-04T09:26:39.660Z,19.00
2018-09-04T09:29:07.097Z,19.00
2018-09-04T09:31:34.647Z,19.20
2018-09-04T09:34:02.030Z,19.40
2018-09-04T09:36:29.512Z,19.50
2018-09-04T09:38:56.891Z,19.60
2018-09-04T09:41:24.393Z,19.70
2018-09-04T09:43:51.850Z,19.60
2018-09-04T09:46:19.271Z,19.60
2018-09-04T09:48:46.818Z,19.60
2018-09-04T09:51:14.397Z,19.60
2018-09-04T09:53:42.005Z,19.60
2018-09-04T09:56:10.368Z,19.70
2018-09-04T09:58:38.214Z,19.70
2018-09-04T10:01:11.480Z,19.80
2018-09-04T10:03:48.586Z,19.90
2018-09-04T10:06:17.232Z,20.00
2018-09-04T10:08:44.819Z,20.10
2018-09-04T10:11:12.422Z,20.20
2018-09-04T10:13:39.708Z,20.40
2018-09-04T10:16:07.198Z,20.50
2018-09-04T10:18:34.608Z,20.60
2018-09-04T10:21:02.140Z,20.60
2018-09-04T10:23:29.629Z,20.70
2018-09-04T10:25:57.194Z,20.90
2018-09-04T10:28:24.747Z,20.90
2018-09-04T10:30:52.148Z,21.00
2018-09-04T10:33:19.617Z,21.00
2018-09-04T10:35:47.124Z,21.20
2018-09-04T10:38:14.572Z,21.50
2018-09-04T10:40:43.892Z,21.50
2018-09-04T10:43:11.432Z,21.50
2018-09-04T10:46:22.736Z,21.50
2018-09-04T10:48:50.213Z,21.50
2018-09-04T10:51:17.674Z,21.50
2018-09-04T10:53:45.195Z,21.40
2018-09-04T10:56:12.652Z,21.50
2018-09-04T10:58:40.127Z,21.50
2018-09-04T11:01:07.562Z,21.60
2018-09-04T11:03:34.998Z,21.70
2018-09-04T11:06:02.474Z,21.70
2018-09-04T11:08:29.931Z,21.70
2018-09-04T11:10:57.477Z,21.70
2018-09-04T11:13:24.933Z,21.80
2018-09-04T11:15:53.412Z,21.90
2018-09-04T11:18:20.927Z,22.00
2018-09-04T11:20:48.371Z,22.00
2018-09-04T11:23:15.773Z,22.10
2018-09-04T11:25:43.205Z,22.20
2018-09-04T11:28:10.713Z,22.50
2018-09-04T11:30:38.291Z,22.80
2018-09-04T11:33:05.671Z,22.80
2018-09-04T11:35:33.155Z,22.80
2018-09-04T11:38:00.575Z,22.80
2018-09-04T11:40:28.133Z,22.70
2018-09-04T11:42:55.603Z,22.70
2018-09-04T11:45:23.187Z,22.60
2018-09-04T11:47:50.646Z,22.50
2018-09-04T11:50:18.020Z,22.60
2018-09-04T11:52:45.493Z,22.70
2018-09-04T11:55:12.961Z,22.70
2018-09-04T11:57:40.760Z,22.70
2018-09-04T12:00:10.551Z,22.70
2018-09-04T12:02:39.184Z,22.80
2018-09-04T12:05:06.603Z,23.00
2018-09-04T12:07:34.032Z,23.20
2018-09-04T12:10:01.499Z,23.50
2018-09-04T12:12:30.271Z,23.80
2018-09-04T12:14:57.661Z,24.10
2018-09-04T12:17:25.275Z,24.30
2018-09-04T12:20:46.287Z,24.30
2018-09-04T12:23:13.759Z,24.30
2018-09-04T12:25:41.815Z,24.20
2018-09-04T12:28:09.334Z,24.30
2018-09-04T12:30:36.799Z,24.30
2018-09-04T12:33:04.388Z,23.90
2018-09-04T12:35:32.880Z,23.70
2018-09-04T12:38:00.556Z,23.60
2018-09-04T12:40:28.040Z,23.40
2018-09-04T12:42:55.477Z,23.40
2018-09-04T12:45:24.331Z,23.30
2018-09-04T12:47:52.265Z,23.20
2018-09-04T12:50:19.893Z,23.30
2018-09-04T12:52:47.636Z,23.50
2018-09-04T12:55:15.111Z,23.50
2018-09-04T12:57:42.504Z,23.50
2018-09-04T13:00:10.537Z,23.50
2018-09-04T13:02:38.324Z,23.50
2018-09-04T13:05:05.826Z,23.50
2018-09-04T13:07:33.359Z,23.90
2018-09-04T13:10:00.774Z,24.00
2018-09-04T13:12:28.173Z,24.10
2018-09-04T13:14:55.652Z,24.20
2018-09-04T13:17:23.152Z,24.30
2018-09-04T13:19:50.620Z,24.50
2018-09-04T13:22:18.123Z,24.30
2018-09-04T13:24:45.512Z,24.20
2018-09-04T13:27:12.911Z,24.00
2018-09-04T13:29:40.500Z,24.00
2018-09-04T13:32:07.979Z,24.00
2018-09-04T13:34:35.411Z,23.90
2018-09-04T13:37:02.901Z,23.80
2018-09-04T13:39:30.320Z,23.80
2018-09-04T13:41:57.733Z,23.90
2018-09-04T13:44:25.229Z,23.90
2018-09-04T13:46:52.742Z,24.00
2018-09-04T13:49:20.186Z,24.00
2018-09-04T13:51:47.635Z,24.00
2018-09-04T13:54:15.047Z,23.90
2018-09-04T13:56:42.508Z,24.10
2018-09-04T13:59:09.954Z,24.10
2018-09-04T14:01:37.399Z,24.20
2018-09-04T14:04:05.016Z,24.30
2018-09-04T14:06:32.371Z,24.20
2018-09-04T14:08:59.742Z,24.10
2018-09-04T14:11:27.146Z,24.20
2018-09-04T14:13:54.601Z,24.30
2018-09-04T14:16:23.405Z,24.70
2018-09-04T14:18:50.921Z,24.90
2018-09-04T14:21:18.331Z,25.40
2018-09-04T14:23:45.757Z,25.30
2018-09-04T14:26:13.610Z,25.00
2018-09-04T14:28:41.579Z,24.70
2018-09-04T14:31:08.446Z,24.60
2018-09-04T14:33:35.800Z,24.50
2018-09-04T14:36:03.325Z,24.50
2018-09-04T14:38:30.676Z,24.40
2018-09-04T14:40:58.100Z,24.40
2018-09-04T14:43:25.503Z,24.40
2018-09-04T14:45:52.952Z,24.20
2018-09-04T14:48:20.414Z,24.20
2018-09-04T14:50:47.855Z,24.10
2018-09-04T14:53:15.319Z,24.00
2018-09-04T14:55:42.726Z,24.00
2018-09-04T14:58:10.118Z,24.00
2018-09-04T15:00:37.582Z,24.00
2018-09-04T15:03:04.843Z,24.10
2018-09-04T15:05:32.308Z,24.20
2018-09-04T15:08:00.702Z,24.20
2018-09-04T15:10:28.128Z,24.30
2018-09-04T15:12:55.560Z,24.20
2018-09-04T15:15:23.044Z,24.30
2018-09-04T15:17:50.430Z,24.30
2018-09-04T15:20:17.846Z,24.30
2018-09-04T15:22:45.306Z,24.40
2018-09-04T15:25:12.702Z,24.30
2018-09-04T15:27:40.126Z,24.30
2018-09-04T15:30:07.548Z,24.30
2018-09-04T15:32:35.111Z,24.50
2018-09-04T15:35:02.756Z,24.50
2018-09-04T15:37:30.257Z,24.40
2018-09-04T15:39:57.741Z,24.40
2018-09-04T15:42:25.566Z,24.40
2018-09-04T15:44:53.244Z,24.40
2018-09-04T15:47:21.014Z,24.40
2018-09-04T15:49:48.489Z,24.40
2018-09-04T15:52:16.642Z,24.40
2018-09-04T15:54:44.599Z,24.40
2018-09-04T15:57:12.806Z,24.30
2018-09-04T15:59:40.363Z,24.40
2018-09-04T16:02:07.831Z,24.30
2018-09-04T16:04:35.341Z,24.30
2018-09-04T16:07:02.862Z,24.40
2018-09-04T16:09:30.311Z,24.30
2018-09-04T16:11:57.777Z,24.30
2018-09-04T16:14:25.119Z,24.40
2018-09-04T16:16:52.480Z,24.40
2018-09-04T16:19:19.991Z,24.40
2018-09-04T16:21:47.530Z,24.40
2018-09-04T16:24:14.943Z,24.60
2018-09-04T16:26:42.338Z,24.60
2018-09-04T16:29:09.768Z,24.50
2018-09-04T16:31:37.265Z,24.50
2018-09-04T16:34:04.827Z,24.40
2018-09-04T16:36:32.245Z,24.40
2018-09-04T16:38:59.777Z,24.40
2018-09-04T16:41:27.228Z,24.40
2018-09-04T16:43:54.645Z,24.30
2018-09-04T16:46:22.130Z,24.30
2018-09-04T16:48:49.736Z,24.20
2018-09-04T16:51:17.215Z,24.20
2018-09-04T16:53:44.591Z,24.10
2018-09-04T16:56:12.079Z,24.10
2018-09-04T16:58:39.466Z,24.00
2018-09-04T17:01:06.875Z,23.90
2018-09-04T17:03:34.329Z,23.80
2018-09-04T17:06:01.800Z,23.80
2018-09-04T17:08:29.219Z,23.70
2018-09-04T17:10:56.760Z,23.70
2018-09-04T17:13:24.214Z,23.70
2018-09-04T17:15:51.653Z,23.70
2018-09-04T17:18:19.132Z,23.60
2018-09-04T17:20:46.600Z,23.70
2018-09-04T17:23:14.109Z,23.60
2018-09-04T17:25:41.554Z,23.60
2018-09-04T17:28:08.956Z,23.60
2018-09-04T17:30:36.477Z,23.50
2018-09-04T17:33:04.026Z,23.50
2018-09-04T17:35:31.450Z,23.50
2018-09-04T17:37:58.957Z,23.50
2018-09-04T17:40:26.542Z,23.50
2018-09-04T17:42:53.952Z,23.50
2018-09-04T17:45:21.490Z,23.50
2018-09-04T17:47:49.008Z,23.50
2018-09-04T17:50:16.524Z,23.40
2018-09-04T17:52:44.000Z,23.30
2018-09-04T17:55:11.491Z,23.30
2018-09-04T17:57:39.136Z,23.40
2018-09-04T18:00:07.148Z,23.50
2018-09-04T18:02:34.604Z,23.70
2018-09-04T18:05:02.014Z,23.70
2018-09-04T18:07:29.499Z,23.80
2018-09-04T18:09:56.996Z,23.80
2018-09-04T18:12:24.493Z,23.80
2018-09-04T18:14:52.090Z,23.80
2018-09-04T18:17:19.575Z,23.80
2018-09-04T18:19:47.212Z,23.80
2018-09-04T18:22:14.672Z,23.80
2018-09-04T18:24:42.167Z,23.80
2018-09-04T18:27:09.661Z,23.80
2018-09-04T18:29:37.156Z,23.70
2018-09-04T18:32:04.607Z,23.70
2018-09-04T18:34:32.112Z,23.50
2018-09-04T18:36:59.796Z,23.30
2018-09-04T18:39:27.183Z,23.10
2018-09-04T18:41:54.951Z,23.10
2018-09-04T18:44:22.503Z,23.10
2018-09-04T18:46:49.997Z,22.90
2018-09-04T18:49:17.519Z,22.90
2018-09-04T18:51:45.008Z,22.90
2018-09-04T18:54:12.541Z,23.10
2018-09-04T18:56:40.033Z,23.10
2018-09-04T18:59:07.624Z,23.20
2018-09-04T19:01:35.258Z,23.20
2018-09-04T19:04:02.863Z,23.20
2018-09-04T19:06:30.344Z,23.20
2018-09-04T19:08:57.782Z,23.10
2018-09-04T19:11:25.229Z,23.10
2018-09-04T19:13:52.743Z,23.10
2018-09-04T19:16:20.237Z,23.10
2018-09-04T19:18:47.658Z,23.10
2018-09-04T19:21:15.153Z,23.00
2018-09-04T19:23:42.731Z,23.00
2018-09-04T19:26:10.084Z,22.80
2018-09-04T19:28:38.602Z,22.90
2018-09-04T19:31:06.092Z,22.80
2018-09-04T19:33:33.519Z,22.80
2018-09-04T19:36:00.919Z,22.70
2018-09-04T19:38:28.268Z,22.70
2018-09-04T19:40:55.700Z,22.80
2018-09-04T19:43:23.192Z,22.70
2018-09-04T19:45:50.677Z,22.70
2018-09-04T19:48:18.244Z,22.60
2018-09-04T19:50:45.778Z,22.70
2018-09-04T19:53:13.178Z,22.50
2018-09-04T19:55:40.776Z,22.50
2018-09-04T19:58:08.297Z,22.60
2018-09-04T20:00:36.972Z,22.50
2018-09-04T20:03:04.577Z,22.50
2018-09-04T20:05:32.113Z,22.50
2018-09-04T20:07:59.651Z,22.50
2018-09-04T20:10:27.175Z,22.40
2018-09-04T20:12:54.653Z,22.30
2018-09-04T20:15:22.156Z,22.30
2018-09-04T20:17:49.646Z,22.30
2018-09-04T20:20:17.077Z,22.20
2018-09-04T20:22:44.542Z,22.20
2018-09-04T20:25:11.924Z,22.20
2018-09-04T20:27:39.348Z,22.10
2018-09-04T20:30:06.836Z,22.10
2018-09-04T20:32:34.337Z,22.00
2018-09-04T20:35:01.772Z,22.00
2018-09-04T20:37:29.261Z,22.00
2018-09-04T20:39:56.691Z,22.00
2018-09-04T20:42:24.104Z,22.00
2018-09-04T20:44:51.542Z,22.00
2018-09-04T20:47:18.910Z,22.00
2018-09-04T20:49:46.347Z,22.00
2018-09-04T20:52:13.798Z,21.90
2018-09-04T20:54:41.230Z,21.90
2018-09-04T20:57:24.740Z,21.70
2018-09-04T21:00:05.139Z,21.70
2018-09-04T21:02:44.287Z,21.80
2018-09-04T21:05:23.587Z,21.80
2018-09-04T21:08:08.352Z,21.70
2018-09-04T21:10:35.835Z,21.70
2018-09-04T21:13:03.504Z,21.70
2018-09-04T21:15:30.984Z,21.60
2018-09-04T21:17:58.660Z,21.60
2018-09-04T21:20:26.093Z,21.50
2018-09-04T21:22:53.760Z,21.50
2018-09-04T21:25:21.163Z,21.40
2018-09-04T21:27:48.585Z,21.40
2018-09-04T21:30:16.048Z,21.30
2018-09-04T21:32:43.509Z,21.30
2018-09-04T21:35:15.617Z,21.30
2018-09-04T21:37:43.241Z,21.20
2018-09-04T21:40:10.826Z,21.20
2018-09-04T21:42:38.242Z,21.10
2018-09-04T21:45:06.116Z,21.10
2018-09-04T21:48:22.433Z,21.10
2018-09-04T21:50:49.922Z,21.10
2018-09-04T21:53:17.861Z,21.00
2018-09-04T21:55:45.293Z,20.90
2018-09-04T21:58:12.767Z,20.80
2018-09-04T22:00:40.264Z,20.70
2018-09-04T22:03:08.567Z,20.70
2018-09-04T22:05:37.126Z,20.60
2018-09-04T22:08:04.661Z,20.50
2018-09-04T22:10:32.433Z,20.50
2018-09-04T22:12:59.833Z,20.40
2018-09-04T22:15:27.469Z,20.30
2018-09-04T22:17:54.932Z,20.20
2018-09-04T22:20:22.467Z,20.20
2018-09-04T22:22:49.893Z,20.20
2018-09-04T22:25:17.262Z,20.10
2018-09-04T22:27:44.670Z,20.10
2018-09-04T22:30:12.085Z,20.10
2018-09-04T22:32:39.520Z,20.00
2018-09-04T22:35:06.916Z,20.00
2018-09-04T22:37:34.419Z,20.00
2018-09-04T22:40:01.797Z,19.90
2018-09-04T22:42:29.252Z,20.00
2018-09-04T22:44:56.658Z,20.00
2018-09-04T22:47:24.183Z,19.90
2018-09-04T22:49:57.181Z,19.90
2018-09-04T22:52:28.615Z,19.80
2018-09-04T22:54:57.880Z,19.70
2018-09-04T22:57:25.342Z,19.60
2018-09-04T22:59:53.162Z,19.50
2018-09-04T23:02:20.660Z,19.50
2018-09-04T23:04:48.100Z,19.50
2018-09-04T23:07:15.836Z,19.50
2018-09-04T23:09:43.280Z,19.50
2018-09-04T23:12:10.845Z,19.50
2018-09-04T23:14:38.318Z,19.50
2018-09-04T23:17:05.757Z,19.40
2018-09-04T23:19:33.240Z,19.30
2018-09-04T23:22:00.702Z,19.30
2018-09-04T23:24:28.157Z,19.30
2018-09-04T23:26:55.611Z,19.30
2018-09-04T23:29:23.035Z,19.30
2018-09-04T23:31:50.530Z,19.10
2018-09-04T23:34:17.992Z,19.10
2018-09-04T23:36:45.389Z,19.20
2018-09-04T23:39:12.837Z,19.20
2018-09-04T23:41:40.367Z,19.20
2018-09-04T23:44:07.969Z,19.10
2018-09-04T23:46:35.421Z,19.10
2018-09-04T23:49:02.875Z,19.10
2018-09-04T23:51:30.295Z,19.10
2018-09-04T23:53:57.775Z,19.10
2018-09-04T23:56:25.246Z,19.00
2018-09-04T23:58:52.632Z,18.70
